createdAt,value
2022-08-25T00:00:14.725Z,51.40
2022-08-25T00:02:41.230Z,51.90
2022-08-25T00:05:21.555Z,51.90
2022-08-25T00:07:48.172Z,51.90
2022-08-25T00:10:14.622Z,51.90
2022-08-25T00:12:41.070Z,51.90
2022-08-25T00:15:07.526Z,51.90
2022-08-25T00:17:34.010Z,51.80
2022-08-25T00:20:00.454Z,51.40
2022-08-25T00:22:26.893Z,51.30
2022-08-25T00:24:53.359Z,51.90
2022-08-25T00:27:19.800Z,51.80
2022-08-25T00:29:46.271Z,51.40
2022-08-25T00:32:12.731Z,51.90
2022-08-25T00:34:39.172Z,51.90
2022-08-25T00:37:05.608Z,51.40
2022-08-25T00:39:32.060Z,51.90
2022-08-25T00:41:58.506Z,51.30
2022-08-25T00:44:24.940Z,51.80
2022-08-25T00:46:51.399Z,51.90
2022-08-25T00:49:20.872Z,51.90
2022-08-25T00:51:51.598Z,51.30
2022-08-25T00:54:18.048Z,51.30
2022-08-25T00:56:44.492Z,52.00
2022-08-25T00:59:10.965Z,51.90
2022-08-25T01:01:37.448Z,51.30
2022-08-25T01:04:03.907Z,51.50
2022-08-25T01:06:30.350Z,51.90
2022-08-25T01:08:56.816Z,51.30
2022-08-25T01:11:23.259Z,51.30
2022-08-25T01:13:49.751Z,51.90
2022-08-25T01:16:16.252Z,51.30
2022-08-25T01:18:42.757Z,51.90
2022-08-25T01:21:09.209Z,51.40
2022-08-25T01:23:35.674Z,51.40
2022-08-25T01:26:02.120Z,52.00
2022-08-25T01:28:28.555Z,52.00
2022-08-25T01:30:55.054Z,52.00
2022-08-25T01:33:22.463Z,51.50
2022-08-25T01:35:48.901Z,52.10
2022-08-25T01:38:15.356Z,51.60
2022-08-25T01:40:41.797Z,52.50
2022-08-25T01:43:08.250Z,52.10
2022-08-25T01:45:34.681Z,52.10
2022-08-25T01:48:01.183Z,52.10
2022-08-25T01:50:27.660Z,51.60
2022-08-25T01:52:54.120Z,51.60
2022-08-25T01:55:20.565Z,52.20
2022-08-25T01:57:47.004Z,52.10
2022-08-25T02:00:13.454Z,51.50
2022-08-25T02:02:42.617Z,52.20
2022-08-25T02:05:10.397Z,51.60
2022-08-25T02:07:36.820Z,52.10
2022-08-25T02:10:04.545Z,51.70
2022-08-25T02:12:31.013Z,52.20
2022-08-25T02:14:57.463Z,52.20
2022-08-25T02:17:23.905Z,52.20
2022-08-25T02:19:50.386Z,51.70
2022-08-25T02:22:16.848Z,52.20
2022-08-25T02:24:43.317Z,52.20
2022-08-25T02:27:09.761Z,52.20
2022-08-25T02:29:36.197Z,51.60
2022-08-25T02:32:02.657Z,51.60
2022-08-25T02:34:29.101Z,52.00
2022-08-25T02:36:55.560Z,52.20
2022-08-25T02:39:22.003Z,51.50
2022-08-25T02:41:48.462Z,51.70
2022-08-25T02:44:14.912Z,52.20
2022-08-25T02:46:41.354Z,51.50
2022-08-25T02:49:07.821Z,52.10
2022-08-25T02:51:34.285Z,51.70
2022-08-25T02:54:00.732Z,52.20
2022-08-25T02:56:27.208Z,52.20
2022-08-25T02:58:53.656Z,51.70
2022-08-25T03:01:20.237Z,52.20
2022-08-25T03:03:48.621Z,52.20
2022-08-25T03:06:15.090Z,52.20
2022-08-25T03:08:41.553Z,52.20
2022-08-25T03:11:08.016Z,51.60
2022-08-25T03:13:34.476Z,52.10
2022-08-25T03:16:00.963Z,51.70
2022-08-25T03:18:29.372Z,52.30
2022-08-25T03:20:55.841Z,51.60
2022-08-25T03:23:22.276Z,52.20
2022-08-25T03:25:48.718Z,51.60
2022-08-25T03:28:15.164Z,51.60
2022-08-25T03:30:41.624Z,51.70
2022-08-25T03:33:08.080Z,52.20
2022-08-25T03:35:34.522Z,52.20
2022-08-25T03:38:00.969Z,52.20
2022-08-25T03:40:27.455Z,51.70
2022-08-25T03:42:53.936Z,51.60
2022-08-25T03:45:20.380Z,52.20
2022-08-25T03:47:46.834Z,52.20
2022-08-25T03:50:13.287Z,52.10
2022-08-25T03:52:42.618Z,52.20
2022-08-25T03:55:09.306Z,52.10
2022-08-25T03:57:35.754Z,52.20
2022-08-25T04:00:02.227Z,52.20
2022-08-25T04:02:28.747Z,52.20
2022-08-25T04:04:55.631Z,52.30
2022-08-25T04:07:22.114Z,52.20
2022-08-25T04:09:48.556Z,51.70
2022-08-25T04:12:14.996Z,52.20
2022-08-25T04:14:45.381Z,52.20
2022-08-25T04:17:11.830Z,52.30
2022-08-25T04:19:38.268Z,52.30
2022-08-25T04:22:04.708Z,51.70
2022-08-25T04:24:31.146Z,52.30
2022-08-25T04:26:57.594Z,52.10
2022-08-25T04:29:24.101Z,52.20
2022-08-25T04:31:50.662Z,51.70
2022-08-25T04:34:30.318Z,52.30
2022-08-25T04:36:57.693Z,52.30
2022-08-25T04:39:24.134Z,52.20
2022-08-25T04:41:50.577Z,52.20
2022-08-25T04:44:17.043Z,52.20
2022-08-25T04:46:43.518Z,52.30
2022-08-25T04:49:09.987Z,52.20
2022-08-25T04:51:38.306Z,52.20
2022-08-25T04:54:04.753Z,52.30
2022-08-25T04:56:31.245Z,52.30
2022-08-25T04:58:57.690Z,52.30
2022-08-25T05:01:24.259Z,52.30
2022-08-25T05:03:50.837Z,52.30
2022-08-25T05:06:17.291Z,52.40
2022-08-25T05:08:45.846Z,51.70
2022-08-25T05:11:12.689Z,52.20
2022-08-25T05:13:39.400Z,51.70
2022-08-25T05:16:05.905Z,52.20
2022-08-25T05:18:36.250Z,52.30
2022-08-25T05:21:02.695Z,51.60
2022-08-25T05:23:29.229Z,52.40
2022-08-25T05:25:55.692Z,52.30
2022-08-25T05:28:22.138Z,52.20
2022-08-25T05:30:48.585Z,51.80
2022-08-25T05:33:15.029Z,52.40
2022-08-25T05:35:41.496Z,52.50
2022-08-25T05:38:07.927Z,52.50
2022-08-25T05:40:41.967Z,52.00
2022-08-25T05:43:08.736Z,52.00
2022-08-25T05:45:35.193Z,52.60
2022-08-25T05:48:01.892Z,52.60
2022-08-25T05:50:28.339Z,52.00
2022-08-25T05:52:54.794Z,52.60
2022-08-25T05:55:21.240Z,52.60
2022-08-25T05:57:47.675Z,52.10
2022-08-25T06:00:14.131Z,52.10
2022-08-25T06:02:40.573Z,52.70
2022-08-25T06:05:07.033Z,52.60
2022-08-25T06:07:33.480Z,52.60
2022-08-25T06:09:59.926Z,52.50
2022-08-25T06:12:26.364Z,52.60
2022-08-25T06:14:52.845Z,52.70
2022-08-25T06:17:19.298Z,52.70
2022-08-25T06:19:45.773Z,52.60
2022-08-25T06:22:12.216Z,52.60
2022-08-25T06:24:38.669Z,52.50
2022-08-25T06:27:05.108Z,52.70
2022-08-25T06:29:31.548Z,52.70
2022-08-25T06:31:58.081Z,52.30
2022-08-25T06:34:24.558Z,52.90
2022-08-25T06:36:51.013Z,52.70
2022-08-25T06:39:17.468Z,52.70
2022-08-25T06:41:43.922Z,52.90
2022-08-25T06:44:10.385Z,52.80
2022-08-25T06:46:37.286Z,52.90
2022-08-25T06:49:03.863Z,52.90
2022-08-25T06:51:30.304Z,53.50
2022-08-25T06:53:56.766Z,52.80
2022-08-25T06:56:23.228Z,52.90
2022-08-25T06:58:50.518Z,52.30
2022-08-25T07:01:19.990Z,52.70
2022-08-25T07:03:46.925Z,52.90
2022-08-25T07:06:14.105Z,52.70
2022-08-25T07:08:41.120Z,52.70
2022-08-25T07:11:07.584Z,52.20
2022-08-25T07:13:42.590Z,52.80
2022-08-25T07:16:09.089Z,52.30
2022-08-25T07:18:35.627Z,52.80
2022-08-25T07:21:02.095Z,52.20
2022-08-25T07:23:30.482Z,52.70
2022-08-25T07:25:56.920Z,52.80
2022-08-25T07:28:23.386Z,52.40
2022-08-25T07:30:52.121Z,52.50
2022-08-25T07:33:18.750Z,53.00
2022-08-25T07:35:45.213Z,52.40
2022-08-25T07:38:13.029Z,52.90
2022-08-25T07:40:42.680Z,53.00
2022-08-25T07:43:09.643Z,53.00
2022-08-25T07:45:36.263Z,53.00
2022-08-25T07:48:09.594Z,53.20
2022-08-25T07:50:36.085Z,52.50
2022-08-25T07:53:02.541Z,52.50
2022-08-25T07:55:29.012Z,52.90
2022-08-25T07:58:05.797Z,52.50
2022-08-25T08:00:32.297Z,52.30
2022-08-25T08:02:58.793Z,52.90
2022-08-25T08:05:25.294Z,52.90
2022-08-25T08:07:51.753Z,52.90
2022-08-25T08:11:00.590Z,52.40
2022-08-25T08:13:07.230Z,52.90
2022-08-25T08:15:34.073Z,52.30
2022-08-25T08:18:00.533Z,52.90
2022-08-25T08:20:27.182Z,52.40
2022-08-25T08:22:53.653Z,53.00
2022-08-25T08:25:24.236Z,53.00
2022-08-25T08:28:04.837Z,52.90
2022-08-25T08:30:33.790Z,52.40
2022-08-25T08:33:11.392Z,52.80
2022-08-25T08:35:38.583Z,53.00
2022-08-25T08:38:10.338Z,52.30
2022-08-25T08:40:41.584Z,52.40
2022-08-25T08:43:13.360Z,53.00
2022-08-25T08:45:44.717Z,52.40
2022-08-25T08:48:11.170Z,53.00
2022-08-25T08:50:37.610Z,52.40
2022-08-25T08:53:04.954Z,52.40
2022-08-25T08:55:31.669Z,52.40
2022-08-25T08:57:58.239Z,53.00
2022-08-25T09:00:25.090Z,52.50
2022-08-25T09:02:52.293Z,53.10
2022-08-25T09:05:18.797Z,53.00
2022-08-25T09:07:45.280Z,53.00
2022-08-25T09:10:13.747Z,52.50
2022-08-25T09:12:40.231Z,53.00
2022-08-25T09:15:12.740Z,52.90
2022-08-25T09:17:40.425Z,52.90
2022-08-25T09:20:18.584Z,52.30
2022-08-25T09:22:46.732Z,52.30
2022-08-25T09:25:18.755Z,52.30
2022-08-25T09:27:48.811Z,52.90
2022-08-25T09:30:15.321Z,52.90
2022-08-25T09:32:41.794Z,52.90
2022-08-25T09:35:15.532Z,52.30
2022-08-25T09:37:41.980Z,52.90
2022-08-25T09:40:08.479Z,52.40
2022-08-25T09:42:34.949Z,52.90
2022-08-25T09:45:01.413Z,51.90
2022-08-25T09:47:28.162Z,52.50
2022-08-25T09:49:54.657Z,52.90
2022-08-25T09:52:21.988Z,51.90
2022-08-25T09:54:48.445Z,52.50
2022-08-25T09:57:14.918Z,52.20
2022-08-25T09:59:42.100Z,52.20
2022-08-25T10:02:23.827Z,52.90
2022-08-25T10:07:17.313Z,51.80
2022-08-25T10:09:43.754Z,51.90
2022-08-25T10:12:10.217Z,52.20
2022-08-25T10:14:37.490Z,53.10
2022-08-25T10:17:03.945Z,52.30
2022-08-25T10:19:30.592Z,53.10
2022-08-25T10:24:24.036Z,52.40
2022-08-25T10:26:50.607Z,53.40
2022-08-25T10:29:17.065Z,53.00
2022-08-25T10:34:10.497Z,52.40
2022-08-25T10:36:36.956Z,52.00
2022-08-25T10:39:03.711Z,52.20
2022-08-25T10:41:30.250Z,51.90
2022-08-25T10:43:56.717Z,52.40
2022-08-25T10:46:25.197Z,52.30
2022-08-25T10:48:51.709Z,52.30
2022-08-25T10:51:21.518Z,52.30
2022-08-25T10:53:51.369Z,53.40
2022-08-25T10:56:17.989Z,52.30
2022-08-25T11:01:11.475Z,52.40
2022-08-25T11:03:37.972Z,52.70
2022-08-25T11:06:04.709Z,52.60
2022-08-25T11:08:31.140Z,52.50
2022-08-25T11:10:57.598Z,52.90
2022-08-25T11:13:24.051Z,52.30
2022-08-25T11:16:15.601Z,52.20
2022-08-25T11:18:36.942Z,53.00
2022-08-25T11:23:30.391Z,53.00
2022-08-25T11:25:57.804Z,52.40
2022-08-25T11:28:24.260Z,52.90
2022-08-25T11:30:50.862Z,53.60
2022-08-25T11:33:17.325Z,53.10
2022-08-25T11:38:13.031Z,52.30
2022-08-25T11:40:39.485Z,52.20
2022-08-25T11:43:08.184Z,52.10
2022-08-25T11:45:34.830Z,52.90
2022-08-25T11:48:01.304Z,52.70
2022-08-25T11:50:29.854Z,52.50
2022-08-25T11:52:57.156Z,53.20
2022-08-25T11:55:23.630Z,53.50
2022-08-25T11:57:53.245Z,53.60
2022-08-25T12:00:20.105Z,52.50
2022-08-25T12:02:47.113Z,52.40
2022-08-25T12:05:13.690Z,52.30
2022-08-25T12:07:40.230Z,52.30
2022-08-25T12:10:06.695Z,52.90
2022-08-25T12:12:33.177Z,52.10
2022-08-25T12:14:59.618Z,53.10
2022-08-25T12:17:26.049Z,52.00
2022-08-25T12:19:52.493Z,52.30
2022-08-25T12:22:19.821Z,52.10
2022-08-25T12:24:47.629Z,52.10
2022-08-25T12:27:15.053Z,52.90
2022-08-25T12:29:41.505Z,52.70
2022-08-25T12:32:09.459Z,52.10
2022-08-25T12:34:35.965Z,52.10
2022-08-25T12:37:02.624Z,52.40
2022-08-25T12:39:32.990Z,52.80
2022-08-25T12:41:59.465Z,53.00
2022-08-25T12:44:26.349Z,53.20
2022-08-25T12:46:52.796Z,53.00
2022-08-25T12:49:21.029Z,53.20
2022-08-25T12:51:48.824Z,53.20
2022-08-25T12:54:15.878Z,53.20
2022-08-25T12:56:47.733Z,52.00
2022-08-25T12:59:14.336Z,53.30
2022-08-25T13:01:40.853Z,53.20
2022-08-25T13:04:09.263Z,53.10
2022-08-25T13:06:35.868Z,52.20
2022-08-25T13:09:02.462Z,53.10
2022-08-25T13:11:34.795Z,53.30
2022-08-25T13:14:01.252Z,52.20
2022-08-25T13:16:29.679Z,52.80
2022-08-25T13:18:56.514Z,52.90
2022-08-25T13:21:22.981Z,53.00
2022-08-25T13:23:49.877Z,53.00
2022-08-25T13:26:16.338Z,52.50
2022-08-25T13:28:50.408Z,52.80
2022-08-25T13:31:17.009Z,52.20
2022-08-25T13:33:45.139Z,52.60
2022-08-25T13:36:11.672Z,52.20
2022-08-25T13:38:38.321Z,52.40
2022-08-25T13:41:09.412Z,53.30
2022-08-25T13:43:36.129Z,53.60
2022-08-25T13:46:02.625Z,52.80
2022-08-25T13:48:29.664Z,53.20
2022-08-25T13:50:56.128Z,53.30
2022-08-25T13:53:24.698Z,52.70
2022-08-25T13:55:52.155Z,53.00
2022-08-25T13:58:24.256Z,53.40
2022-08-25T14:00:50.966Z,53.20
2022-08-25T14:03:20.345Z,52.50
2022-08-25T14:05:56.469Z,53.30
2022-08-25T14:08:25.736Z,53.50
2022-08-25T14:10:52.512Z,53.60
2022-08-25T14:13:19.257Z,53.30
2022-08-25T14:15:45.697Z,52.20
2022-08-25T14:18:13.791Z,52.60
2022-08-25T14:20:41.719Z,53.20
2022-08-25T14:23:09.859Z,53.10
2022-08-25T14:25:36.822Z,52.70
2022-08-25T14:28:08.159Z,53.60
2022-08-25T14:30:34.936Z,53.00
2022-08-25T14:33:01.381Z,53.40
2022-08-25T14:35:27.818Z,53.40
2022-08-25T14:37:54.277Z,53.40
2022-08-25T14:40:20.739Z,53.50
2022-08-25T14:42:47.230Z,52.60
2022-08-25T14:45:13.717Z,53.50
2022-08-25T14:47:40.198Z,53.90
2022-08-25T14:50:06.664Z,52.70
2022-08-25T14:52:33.117Z,53.80
2022-08-25T14:55:00.314Z,53.80
2022-08-25T14:57:26.852Z,53.70
2022-08-25T14:59:53.651Z,53.20
2022-08-25T15:02:20.344Z,52.70
2022-08-25T15:04:49.413Z,53.60
2022-08-25T15:09:45.392Z,53.50
2022-08-25T15:12:14.929Z,53.20
2022-08-25T15:14:44.146Z,53.70
2022-08-25T15:17:11.926Z,53.30
2022-08-25T15:19:41.272Z,53.60
2022-08-25T15:22:07.717Z,52.90
2022-08-25T15:24:38.001Z,52.80
2022-08-25T15:27:05.909Z,53.80
2022-08-25T15:29:36.625Z,53.00
2022-08-25T15:32:03.122Z,53.60
2022-08-25T15:34:29.580Z,52.90
2022-08-25T15:36:56.028Z,53.90
2022-08-25T15:39:22.477Z,52.90
2022-08-25T15:41:49.241Z,52.60
2022-08-25T15:44:16.035Z,53.70
2022-08-25T15:46:42.553Z,53.80
2022-08-25T15:51:47.449Z,53.90
2022-08-25T15:54:14.873Z,53.30
2022-08-25T15:56:41.341Z,54.00
2022-08-25T15:59:09.564Z,53.80
2022-08-25T16:01:36.087Z,53.80
2022-08-25T16:04:03.257Z,53.10
2022-08-25T16:06:30.148Z,54.10
2022-08-25T16:08:56.616Z,52.70
2022-08-25T16:11:23.088Z,53.90
2022-08-25T16:13:49.714Z,53.90
2022-08-25T16:16:16.911Z,54.10
2022-08-25T16:18:43.842Z,53.60
2022-08-25T16:21:12.605Z,53.50
2022-08-25T16:23:39.277Z,54.60
2022-08-25T16:26:05.711Z,54.40
2022-08-25T16:28:32.161Z,54.70
2022-08-25T16:30:59.980Z,54.30
2022-08-25T16:33:26.445Z,53.60
2022-08-25T16:35:52.904Z,54.40
2022-08-25T16:38:19.342Z,54.50
2022-08-25T16:40:46.389Z,53.60
2022-08-25T16:43:12.834Z,54.80
2022-08-25T16:45:39.342Z,54.80
2022-08-25T16:48:06.648Z,54.00
2022-08-25T16:50:34.160Z,54.40
2022-08-25T16:53:01.197Z,54.50
2022-08-25T16:55:27.654Z,54.10
2022-08-25T16:57:54.112Z,54.20
2022-08-25T17:00:20.864Z,53.50
2022-08-25T17:02:47.323Z,54.70
2022-08-25T17:05:13.758Z,53.90
2022-08-25T17:07:40.401Z,54.30
2022-08-25T17:10:06.858Z,54.00
2022-08-25T17:12:38.989Z,54.30
2022-08-25T17:15:06.965Z,53.70
2022-08-25T17:17:33.818Z,54.20
2022-08-25T17:20:00.278Z,54.30
2022-08-25T17:22:31.053Z,53.50
2022-08-25T17:24:59.330Z,53.60
2022-08-25T17:27:27.258Z,54.10
2022-08-25T17:32:20.768Z,54.00
2022-08-25T17:34:55.269Z,54.80
2022-08-25T17:37:21.713Z,54.30
2022-08-25T17:39:50.038Z,53.30
2022-08-25T17:42:20.882Z,54.40
2022-08-25T17:44:47.385Z,54.40
2022-08-25T17:47:14.098Z,53.30
2022-08-25T17:49:40.561Z,53.60
2022-08-25T17:52:07.020Z,54.00
2022-08-25T17:54:33.463Z,54.20
2022-08-25T17:56:59.928Z,54.20
2022-08-25T17:59:26.463Z,53.30
2022-08-25T18:01:59.030Z,54.40
2022-08-25T18:04:27.243Z,54.10
2022-08-25T18:06:56.201Z,54.40
2022-08-25T18:09:22.723Z,53.50
2022-08-25T18:11:49.161Z,54.20
2022-08-25T18:14:15.743Z,54.20
2022-08-25T18:16:42.332Z,53.70
2022-08-25T18:19:09.659Z,54.30
2022-08-25T18:21:36.382Z,53.40
2022-08-25T18:24:02.829Z,53.90
2022-08-25T18:26:29.902Z,54.10
2022-08-25T18:28:56.370Z,54.40
2022-08-25T18:31:22.839Z,54.40
2022-08-25T18:33:51.101Z,54.60
2022-08-25T18:36:18.733Z,54.40
2022-08-25T18:38:45.309Z,54.40
2022-08-25T18:41:12.467Z,53.40
2022-08-25T18:43:38.933Z,53.30
2022-08-25T18:46:06.471Z,54.40
2022-08-25T18:48:34.825Z,53.80
2022-08-25T18:51:02.762Z,54.30
2022-08-25T18:53:30.699Z,54.30
2022-08-25T18:56:04.122Z,53.60
2022-08-25T18:58:30.552Z,53.40
2022-08-25T19:00:57.029Z,54.30
2022-08-25T19:03:23.504Z,54.30
2022-08-25T19:05:51.821Z,54.20
2022-08-25T19:08:23.973Z,54.40
2022-08-25T19:10:50.440Z,54.40
2022-08-25T19:13:16.880Z,53.40
2022-08-25T19:15:49.046Z,53.40
2022-08-25T19:18:17.404Z,54.40
2022-08-25T19:20:44.558Z,54.30
2022-08-25T19:23:11.009Z,53.40
2022-08-25T19:25:38.003Z,53.40
2022-08-25T19:28:08.406Z,54.60
2022-08-25T19:33:05.537Z,54.20
2022-08-25T19:35:38.282Z,54.20
2022-08-25T19:38:07.091Z,54.30
2022-08-25T19:40:51.034Z,54.70
2022-08-25T19:43:17.481Z,54.40
2022-08-25T19:45:43.930Z,53.90
2022-08-25T19:48:13.057Z,54.50
2022-08-25T19:50:39.499Z,53.50
2022-08-25T19:53:06.991Z,54.20
2022-08-25T19:55:33.782Z,54.60
2022-08-25T19:58:00.301Z,54.30
2022-08-25T20:00:26.749Z,52.90
2022-08-25T20:02:53.282Z,53.60
2022-08-25T20:07:50.454Z,53.40
2022-08-25T20:10:17.053Z,53.70
2022-08-25T20:12:44.696Z,54.20
2022-08-25T20:15:11.762Z,54.50
2022-08-25T20:17:38.217Z,54.40
2022-08-25T20:22:35.196Z,54.20
2022-08-25T20:25:01.644Z,53.60
2022-08-25T20:27:28.128Z,54.20
2022-08-25T20:32:21.605Z,54.40
2022-08-25T20:34:48.122Z,54.60
2022-08-25T20:37:14.575Z,54.30
2022-08-25T20:39:41.037Z,53.70
2022-08-25T20:44:37.623Z,53.20
2022-08-25T20:47:06.473Z,53.60
2022-08-25T20:49:37.847Z,54.40
2022-08-25T20:52:04.612Z,54.20
2022-08-25T20:54:31.096Z,54.00
2022-08-25T20:56:57.615Z,54.00
2022-08-25T20:59:24.077Z,54.40
2022-08-25T21:01:50.632Z,54.10
2022-08-25T21:04:17.589Z,53.90
2022-08-25T21:06:44.764Z,54.50
2022-08-25T21:09:15.665Z,54.30
2022-08-25T21:14:09.446Z,54.10
2022-08-25T21:16:36.604Z,53.70
2022-08-25T21:19:03.302Z,54.20
2022-08-25T21:21:30.210Z,53.20
2022-08-25T21:23:56.676Z,54.30
2022-08-25T21:26:24.183Z,54.00
2022-08-25T21:28:52.618Z,54.10
2022-08-25T21:33:46.099Z,53.90
2022-08-25T21:36:16.306Z,53.20
2022-08-25T21:38:42.771Z,54.00
2022-08-25T21:41:10.397Z,53.80
2022-08-25T21:43:36.840Z,54.10
2022-08-25T21:46:05.393Z,53.30
2022-08-25T21:48:33.774Z,54.20
2022-08-25T21:51:00.226Z,53.90
2022-08-25T21:53:26.669Z,53.80
2022-08-25T21:55:53.421Z,53.80
2022-08-25T21:58:20.110Z,53.10
2022-08-25T22:00:46.562Z,53.60
2022-08-25T22:03:13.045Z,52.80
2022-08-25T22:05:40.560Z,54.10
2022-08-25T22:08:07.135Z,53.40
2022-08-25T22:10:33.576Z,53.10
2022-08-25T22:13:00.022Z,54.30
2022-08-25T22:15:26.849Z,54.00
2022-08-25T22:17:53.295Z,52.90
2022-08-25T22:20:19.746Z,54.30
2022-08-25T22:22:46.656Z,53.50
2022-08-25T22:25:13.125Z,54.20
2022-08-25T22:27:39.604Z,52.90
2022-08-25T22:30:06.068Z,53.20
2022-08-25T22:32:32.772Z,54.00
2022-08-25T22:34:59.242Z,53.80
2022-08-25T22:37:25.682Z,53.10
2022-08-25T22:39:52.187Z,53.10
2022-08-25T22:42:18.914Z,52.70
2022-08-25T22:44:52.004Z,53.90
2022-08-25T22:47:18.464Z,53.80
2022-08-25T22:49:44.904Z,53.90
2022-08-25T22:52:12.966Z,52.90
2022-08-25T22:54:39.745Z,53.90
2022-08-25T22:57:06.992Z,53.00
2022-08-25T22:59:33.497Z,53.80
2022-08-25T23:01:59.936Z,53.00
2022-08-25T23:04:26.399Z,52.90
2022-08-25T23:06:52.870Z,53.20
2022-08-25T23:09:19.343Z,53.90
2022-08-25T23:11:45.791Z,53.30
2022-08-25T23:14:12.254Z,53.90
2022-08-25T23:16:39.045Z,53.80
2022-08-25T23:21:37.976Z,53.90
2022-08-25T23:24:07.645Z,53.70
2022-08-25T23:26:34.543Z,54.10
2022-08-25T23:29:00.989Z,54.00
2022-08-25T23:33:56.820Z,53.70
2022-08-25T23:36:23.419Z,52.40
2022-08-25T23:38:51.562Z,53.90
2022-08-25T23:41:18.337Z,53.80
2022-08-25T23:43:44.777Z,53.00
2022-08-25T23:46:11.248Z,53.90
2022-08-25T23:48:38.597Z,53.10
2022-08-25T23:51:05.036Z,53.90
2022-08-25T23:53:31.473Z,52.80
2022-08-25T23:55:57.920Z,54.00
2022-08-25T23:58:25.032Z,53.00
